createdAt,value
2023-02-11T00:00:21.971Z,61.00
2023-02-11T00:02:48.737Z,61.20
2023-02-11T00:05:15.874Z,61.20
2023-02-11T00:07:42.629Z,61.10
2023-02-11T00:10:09.621Z,61.10
2023-02-11T00:12:37.604Z,61.10
2023-02-11T00:15:05.610Z,61.20
2023-02-11T00:17:33.241Z,61.30
2023-02-11T00:19:59.933Z,61.30
2023-02-11T00:22:26.608Z,61.30
2023-02-11T00:24:53.381Z,61.30
2023-02-11T00:27:20.332Z,61.40
2023-02-11T00:29:47.132Z,61.30
2023-02-11T00:32:13.835Z,61.30
2023-02-11T00:34:41.728Z,61.40
2023-02-11T00:37:08.352Z,61.90
2023-02-11T00:39:35.067Z,61.30
2023-02-11T00:42:01.782Z,61.40
2023-02-11T00:44:28.531Z,61.50
2023-02-11T00:46:56.278Z,61.50
2023-02-11T00:49:23.020Z,61.50
2023-02-11T00:51:49.770Z,61.40
2023-02-11T00:54:16.572Z,61.50
2023-02-11T00:56:43.319Z,61.50
2023-02-11T00:59:10.064Z,61.50
2023-02-11T01:01:36.980Z,61.60
2023-02-11T01:04:04.806Z,61.60
2023-02-11T01:06:32.626Z,61.50
2023-02-11T01:08:59.339Z,61.50
2023-02-11T01:11:26.176Z,61.50
2023-02-11T01:13:52.925Z,61.60
2023-02-11T01:16:20.558Z,61.60
2023-02-11T01:18:47.621Z,61.70
2023-02-11T01:21:14.862Z,61.60
2023-02-11T01:23:41.766Z,61.70
2023-02-11T01:26:08.469Z,61.80
2023-02-11T01:28:35.377Z,61.90
2023-02-11T01:31:02.755Z,61.90
2023-02-11T01:33:30.034Z,61.90
2023-02-11T01:36:01.611Z,61.80
2023-02-11T01:38:28.286Z,61.90
2023-02-11T01:41:03.816Z,62.40
2023-02-11T01:43:40.773Z,61.90
2023-02-11T01:46:37.466Z,61.90
2023-02-11T01:49:14.832Z,61.90
2023-02-11T01:51:51.541Z,61.90
2023-02-11T01:54:40.997Z,61.80
2023-02-11T01:57:23.023Z,61.90
2023-02-11T02:00:05.005Z,61.80
2023-02-11T02:02:37.771Z,61.80
2023-02-11T02:05:17.349Z,61.70
2023-02-11T02:08:00.539Z,61.70
2023-02-11T02:10:28.668Z,61.70
2023-02-11T02:12:55.803Z,61.50
2023-02-11T02:15:29.026Z,61.70
2023-02-11T02:18:22.561Z,61.80
2023-02-11T02:21:11.241Z,61.80
2023-02-11T02:23:43.934Z,61.60
2023-02-11T02:26:18.891Z,61.40
2023-02-11T02:29:09.587Z,61.40
2023-02-11T02:31:59.122Z,61.40
2023-02-11T02:34:43.106Z,61.40
2023-02-11T02:37:27.287Z,61.40
2023-02-11T02:39:54.837Z,61.60
2023-02-11T02:42:22.376Z,61.50
2023-02-11T02:44:53.362Z,61.50
2023-02-11T02:47:20.057Z,61.60
2023-02-11T02:49:47.020Z,61.60
2023-02-11T02:52:46.006Z,61.70
2023-02-11T02:55:30.976Z,61.90
2023-02-11T02:58:30.778Z,62.00
2023-02-11T03:01:34.356Z,62.10
2023-02-11T03:04:21.105Z,62.20
2023-02-11T03:06:59.855Z,62.20
2023-02-11T03:09:49.795Z,62.10
2023-02-11T03:12:17.167Z,61.90
2023-02-11T03:14:44.956Z,61.90
2023-02-11T03:17:13.329Z,62.20
2023-02-11T03:19:43.270Z,62.20
2023-02-11T03:22:41.468Z,62.30
2023-02-11T03:25:08.763Z,62.30
2023-02-11T03:27:57.802Z,62.30
2023-02-11T03:30:27.682Z,62.60
2023-02-11T03:33:10.625Z,62.30
2023-02-11T03:35:47.620Z,62.60
2023-02-11T03:38:21.752Z,62.70
2023-02-11T03:40:49.788Z,62.70
2023-02-11T03:43:18.792Z,62.80
2023-02-11T03:45:48.314Z,62.70
2023-02-11T03:48:25.570Z,62.80
2023-02-11T03:50:55.068Z,62.90
2023-02-11T03:53:23.203Z,63.00
2023-02-11T03:55:52.293Z,63.10
2023-02-11T03:58:19.466Z,63.10
2023-02-11T04:00:46.237Z,63.20
2023-02-11T04:03:13.658Z,63.30
2023-02-11T04:05:40.884Z,63.30
2023-02-11T04:08:07.800Z,63.40
2023-02-11T04:10:34.972Z,63.60
2023-02-11T04:13:01.622Z,63.60
2023-02-11T04:15:28.454Z,63.70
2023-02-11T04:17:55.192Z,63.70
2023-02-11T04:20:21.850Z,63.70
2023-02-11T04:22:48.658Z,63.70
2023-02-11T04:25:15.887Z,63.70
2023-02-11T04:27:42.625Z,63.70
2023-02-11T04:30:09.901Z,63.80
2023-02-11T04:32:36.551Z,64.00
2023-02-11T04:35:03.599Z,64.00
2023-02-11T04:37:31.330Z,64.20
2023-02-11T04:39:58.103Z,64.50
2023-02-11T04:42:24.837Z,64.70
2023-02-11T04:44:53.942Z,64.80
2023-02-11T04:47:20.668Z,64.80
2023-02-11T04:49:47.417Z,64.80
2023-02-11T04:52:14.073Z,64.80
2023-02-11T04:54:40.924Z,64.80
2023-02-11T04:57:07.621Z,64.80
2023-02-11T04:59:34.373Z,64.80
2023-02-11T05:02:01.071Z,64.80
2023-02-11T05:04:27.785Z,64.80
2023-02-11T05:06:56.053Z,64.80
2023-02-11T05:09:24.439Z,64.90
2023-02-11T05:11:51.113Z,64.80
2023-02-11T05:14:17.803Z,64.90
2023-02-11T05:16:44.653Z,64.80
2023-02-11T05:19:11.451Z,64.80
2023-02-11T05:21:38.157Z,64.90
2023-02-11T05:24:05.305Z,65.00
2023-02-11T05:26:32.596Z,65.10
2023-02-11T05:28:59.384Z,65.10
2023-02-11T05:31:27.212Z,65.30
2023-02-11T05:33:53.884Z,65.20
2023-02-11T05:36:20.592Z,65.40
2023-02-11T05:38:47.294Z,65.50
2023-02-11T05:41:14.685Z,65.60
2023-02-11T05:43:41.423Z,65.80
2023-02-11T05:46:08.222Z,65.90
2023-02-11T05:48:35.055Z,65.90
2023-02-11T05:51:01.769Z,65.70
2023-02-11T05:53:28.482Z,65.80
2023-02-11T05:55:55.215Z,65.60
2023-02-11T05:58:21.977Z,65.60
2023-02-11T06:00:48.723Z,65.70
2023-02-11T06:03:15.565Z,65.70
2023-02-11T06:05:43.952Z,65.80
2023-02-11T06:08:12.054Z,65.90
2023-02-11T06:10:38.940Z,65.80
2023-02-11T06:13:05.727Z,65.70
2023-02-11T06:15:32.930Z,65.70
2023-02-11T06:17:59.612Z,65.80
2023-02-11T06:20:26.369Z,65.80
2023-02-11T06:22:53.158Z,65.80
2023-02-11T06:25:20.000Z,65.70
2023-02-11T06:27:46.764Z,65.80
2023-02-11T06:30:14.086Z,66.00
2023-02-11T06:32:45.514Z,66.10
2023-02-11T06:35:14.387Z,66.10
2023-02-11T06:37:42.323Z,66.00
2023-02-11T06:40:10.090Z,66.10
2023-02-11T06:42:38.765Z,66.10
2023-02-11T06:45:09.565Z,66.10
2023-02-11T06:47:37.917Z,66.20
2023-02-11T06:50:05.864Z,66.30
2023-02-11T06:52:32.892Z,66.20
2023-02-11T06:55:00.056Z,66.40
2023-02-11T06:57:26.824Z,66.40
2023-02-11T06:59:53.576Z,66.60
2023-02-11T07:02:21.151Z,66.70
2023-02-11T07:04:48.024Z,66.70
2023-02-11T07:07:14.711Z,66.80
2023-02-11T07:09:41.698Z,66.60
2023-02-11T07:12:10.290Z,66.60
2023-02-11T07:14:36.965Z,66.50
2023-02-11T07:17:04.863Z,66.50
2023-02-11T07:19:32.092Z,66.60
2023-02-11T07:22:01.573Z,66.50
2023-02-11T07:24:29.990Z,66.30
2023-02-11T07:26:56.707Z,66.30
2023-02-11T07:29:23.588Z,66.20
2023-02-11T07:31:50.416Z,66.20
2023-02-11T07:34:17.367Z,66.00
2023-02-11T07:36:45.081Z,65.90
2023-02-11T07:39:11.988Z,65.80
2023-02-11T07:41:38.793Z,65.80
2023-02-11T07:44:05.832Z,65.80
2023-02-11T07:46:32.832Z,65.90
2023-02-11T07:49:00.064Z,65.90
2023-02-11T07:51:31.044Z,65.80
2023-02-11T07:53:59.397Z,65.70
2023-02-11T07:56:26.270Z,65.70
2023-02-11T07:58:54.207Z,65.60
2023-02-11T08:01:25.471Z,65.60
2023-02-11T08:03:52.906Z,65.50
2023-02-11T08:06:21.800Z,65.40
2023-02-11T08:08:49.251Z,65.30
2023-02-11T08:11:22.385Z,65.30
2023-02-11T08:13:50.194Z,65.30
2023-02-11T08:16:24.481Z,65.30
2023-02-11T08:18:52.669Z,65.20
2023-02-11T08:21:20.238Z,65.20
2023-02-11T08:23:47.330Z,65.10
2023-02-11T08:26:17.688Z,65.20
2023-02-11T08:28:45.928Z,65.20
2023-02-11T08:31:20.021Z,65.20
2023-02-11T08:33:47.291Z,65.40
2023-02-11T08:36:19.578Z,65.50
2023-02-11T08:38:46.900Z,65.60
2023-02-11T08:41:16.945Z,65.70
2023-02-11T08:43:46.027Z,65.70
2023-02-11T08:46:18.447Z,66.00
2023-02-11T08:48:46.876Z,66.00
2023-02-11T08:51:16.309Z,66.00
2023-02-11T08:53:42.992Z,66.20
2023-02-11T08:56:13.425Z,66.30
2023-02-11T08:58:40.642Z,66.40
2023-02-11T09:01:16.296Z,66.40
2023-02-11T09:03:43.108Z,66.70
2023-02-11T09:06:12.395Z,66.70
2023-02-11T09:08:46.303Z,66.80
2023-02-11T09:11:13.811Z,66.80
2023-02-11T09:13:41.953Z,66.80
2023-02-11T09:16:08.992Z,66.90
2023-02-11T09:18:35.666Z,66.80
2023-02-11T09:21:03.950Z,67.00
2023-02-11T09:23:31.262Z,66.60
2023-02-11T09:25:58.005Z,66.60
2023-02-11T09:28:24.707Z,66.50
2023-02-11T09:30:51.803Z,66.50
2023-02-11T09:33:18.707Z,66.60
2023-02-11T09:35:45.425Z,66.60
2023-02-11T09:38:12.184Z,66.70
2023-02-11T09:40:44.061Z,66.80
2023-02-11T09:43:22.617Z,66.80
2023-02-11T09:45:50.650Z,66.70
2023-02-11T09:48:23.029Z,66.60
2023-02-11T09:51:00.092Z,66.70
2023-02-11T09:53:29.578Z,66.70
2023-02-11T09:56:02.089Z,66.70
2023-02-11T09:58:30.527Z,66.70
2023-02-11T10:01:30.604Z,66.50
2023-02-11T10:04:13.613Z,66.50
2023-02-11T10:06:56.224Z,66.40
2023-02-11T10:09:31.752Z,66.20
2023-02-11T10:12:22.492Z,66.10
2023-02-11T10:14:49.207Z,66.20
2023-02-11T10:17:49.991Z,66.20
2023-02-11T10:20:22.706Z,66.40
2023-02-11T10:22:58.473Z,66.30
2023-02-11T10:25:48.322Z,66.60
2023-02-11T10:28:29.312Z,66.50
2023-02-11T10:31:11.421Z,66.50
2023-02-11T10:33:46.680Z,66.70
2023-02-11T10:36:16.318Z,66.50
2023-02-11T10:38:43.847Z,66.50
2023-02-11T10:41:29.386Z,66.20
2023-02-11T10:43:56.380Z,66.50
2023-02-11T10:46:29.627Z,66.80
2023-02-11T10:48:56.500Z,66.90
2023-02-11T10:51:24.221Z,66.90
2023-02-11T10:54:13.848Z,66.70
2023-02-11T10:56:45.823Z,66.60
2023-02-11T10:59:31.440Z,66.70
2023-02-11T11:02:04.803Z,66.70
2023-02-11T11:04:40.092Z,66.60
2023-02-11T11:07:33.860Z,66.50
2023-02-11T11:10:06.592Z,66.50
2023-02-11T11:12:45.485Z,66.20
2023-02-11T11:15:21.807Z,66.10
2023-02-11T11:18:22.585Z,65.50
2023-02-11T11:23:29.797Z,65.80
2023-02-11T11:26:10.066Z,65.90
2023-02-11T11:28:41.414Z,65.70
2023-02-11T11:31:19.375Z,65.30
2023-02-11T11:33:47.305Z,64.90
2023-02-11T11:36:19.799Z,64.80
2023-02-11T11:38:55.632Z,64.60
2023-02-11T11:41:33.962Z,64.60
2023-02-11T11:44:02.452Z,64.60
2023-02-11T11:46:40.065Z,64.30
2023-02-11T11:49:16.048Z,63.70
2023-02-11T11:51:51.369Z,63.40
2023-02-11T11:54:19.870Z,63.00
2023-02-11T11:57:06.988Z,63.00
2023-02-11T11:59:33.774Z,63.00
2023-02-11T12:02:28.564Z,62.70
2023-02-11T12:07:45.034Z,63.00
2023-02-11T12:28:58.932Z,62.40
2023-02-11T12:31:49.004Z,61.30
2023-02-11T12:34:24.708Z,60.30
2023-02-11T12:37:04.239Z,60.30
2023-02-11T12:39:40.271Z,60.50
2023-02-11T12:43:02.464Z,60.50
2023-02-11T12:45:40.669Z,59.90
2023-02-11T12:48:30.884Z,60.60
2023-02-11T12:51:22.408Z,60.70
2023-02-11T12:54:11.953Z,61.20
2023-02-11T12:57:02.116Z,60.30
2023-02-11T12:59:29.005Z,60.30
2023-02-11T13:01:56.974Z,59.90
2023-02-11T13:04:38.988Z,60.50
2023-02-11T13:07:37.567Z,59.70
2023-02-11T13:10:18.589Z,59.30
2023-02-11T13:13:06.754Z,59.20
2023-02-11T13:15:33.704Z,59.00
2023-02-11T13:18:32.257Z,58.80
2023-02-11T13:34:45.343Z,58.50
2023-02-11T13:37:36.301Z,57.80
2023-02-11T13:43:06.962Z,57.80
2023-02-11T13:45:46.586Z,57.40
2023-02-11T13:50:53.507Z,57.20
2023-02-11T13:53:21.147Z,57.00
2023-02-11T13:55:52.408Z,56.90
2023-02-11T13:58:39.944Z,56.90
2023-02-11T14:01:07.556Z,56.80
2023-02-11T14:03:55.785Z,56.30
2023-02-11T14:07:05.333Z,56.60
2023-02-11T14:09:40.067Z,56.70
2023-02-11T14:12:30.608Z,56.90
2023-02-11T14:15:16.903Z,56.80
2023-02-11T14:17:43.675Z,56.40
2023-02-11T14:20:34.544Z,56.50
2023-02-11T14:23:01.348Z,56.40
2023-02-11T14:25:29.122Z,56.30
2023-02-11T14:28:08.360Z,56.30
2023-02-11T14:31:18.641Z,56.60
2023-02-11T14:34:03.943Z,57.10
2023-02-11T14:36:51.789Z,56.10
2023-02-11T14:39:37.291Z,56.20
2023-02-11T14:42:04.586Z,56.20
2023-02-11T14:44:33.669Z,56.10
2023-02-11T14:47:00.715Z,56.50
2023-02-11T14:49:38.103Z,56.30
2023-02-11T14:52:35.230Z,56.00
2023-02-11T14:55:29.779Z,55.90
2023-02-11T14:58:12.221Z,55.80
2023-02-11T15:00:52.349Z,55.50
2023-02-11T15:03:37.002Z,55.40
2023-02-11T15:06:18.757Z,55.50
2023-02-11T15:08:53.363Z,55.60
2023-02-11T15:11:23.652Z,55.50
2023-02-11T15:13:53.075Z,55.70
2023-02-11T15:16:27.046Z,56.00
2023-02-11T15:18:56.774Z,55.80
2023-02-11T15:21:29.946Z,55.80
2023-02-11T15:24:02.029Z,55.60
2023-02-11T15:26:30.735Z,55.50
2023-02-11T15:28:57.369Z,55.80
2023-02-11T15:31:27.062Z,56.40
2023-02-11T15:33:54.571Z,55.60
2023-02-11T15:36:29.516Z,55.40
2023-02-11T15:39:35.212Z,55.40
2023-02-11T15:42:40.815Z,54.90
2023-02-11T15:45:14.049Z,55.40
2023-02-11T15:47:52.753Z,55.10
2023-02-11T15:50:26.200Z,55.70
2023-02-11T15:52:54.958Z,55.40
2023-02-11T15:55:22.287Z,55.20
2023-02-11T15:57:54.426Z,55.40
2023-02-11T16:00:24.116Z,54.90
2023-02-11T16:02:51.579Z,55.40
2023-02-11T16:05:38.152Z,55.60
2023-02-11T16:08:25.456Z,55.50
2023-02-11T16:11:03.195Z,55.20
2023-02-11T16:13:33.672Z,55.20
2023-02-11T16:16:15.527Z,55.40
2023-02-11T16:19:03.435Z,55.50
2023-02-11T16:21:39.067Z,55.60
2023-02-11T16:24:08.094Z,55.70
2023-02-11T16:26:40.945Z,55.50
2023-02-11T16:29:16.581Z,55.70
2023-02-11T16:31:46.318Z,55.30
2023-02-11T16:34:19.472Z,55.50
2023-02-11T16:36:47.284Z,55.30
2023-02-11T16:39:14.635Z,55.10
2023-02-11T16:41:41.334Z,55.30
2023-02-11T16:44:08.037Z,55.30
2023-02-11T16:46:36.441Z,55.20
2023-02-11T16:49:21.773Z,55.20
2023-02-11T16:51:56.523Z,55.20
2023-02-11T16:54:23.920Z,55.00
2023-02-11T16:56:50.988Z,55.60
2023-02-11T16:59:17.781Z,55.20
2023-02-11T17:01:45.677Z,55.20
2023-02-11T17:04:25.227Z,55.40
2023-02-11T17:06:52.245Z,55.20
2023-02-11T17:09:26.283Z,55.10
2023-02-11T17:11:53.866Z,55.40
2023-02-11T17:14:20.633Z,55.50
2023-02-11T17:16:48.082Z,55.40
2023-02-11T17:19:17.321Z,55.30
2023-02-11T17:21:45.711Z,55.40
2023-02-11T17:24:14.221Z,55.50
2023-02-11T17:26:42.108Z,55.60
2023-02-11T17:29:10.980Z,55.60
2023-02-11T17:31:39.623Z,55.80
2023-02-11T17:34:06.449Z,55.80
2023-02-11T17:36:33.484Z,56.00
2023-02-11T17:39:01.153Z,56.00
2023-02-11T17:41:28.356Z,55.80
2023-02-11T17:43:58.685Z,56.00
2023-02-11T17:46:25.752Z,55.90
2023-02-11T17:48:54.135Z,55.90
2023-02-11T17:51:23.987Z,55.90
2023-02-11T17:53:51.386Z,56.00
2023-02-11T17:56:18.453Z,56.30
2023-02-11T17:58:45.604Z,56.80
2023-02-11T18:01:12.424Z,57.20
2023-02-11T18:03:39.128Z,57.50
2023-02-11T18:06:07.148Z,57.40
2023-02-11T18:08:36.104Z,57.40
2023-02-11T18:11:03.639Z,57.30
2023-02-11T18:13:30.435Z,57.10
2023-02-11T18:16:03.479Z,56.90
2023-02-11T18:18:30.755Z,56.80
2023-02-11T18:20:59.488Z,56.80
2023-02-11T18:23:26.922Z,56.70
2023-02-11T18:25:54.041Z,56.70
2023-02-11T18:28:21.100Z,56.70
2023-02-11T18:30:47.944Z,56.70
2023-02-11T18:33:14.716Z,56.70
2023-02-11T18:35:42.317Z,56.70
2023-02-11T18:38:09.875Z,56.40
2023-02-11T18:40:40.372Z,56.40
2023-02-11T18:43:07.488Z,56.40
2023-02-11T18:45:34.180Z,56.40
2023-02-11T18:48:03.592Z,56.50
2023-02-11T18:50:30.290Z,56.50
2023-02-11T18:52:57.021Z,56.40
2023-02-11T18:55:25.853Z,56.40
2023-02-11T18:57:52.954Z,56.40
2023-02-11T19:00:20.816Z,56.30
2023-02-11T19:02:47.616Z,56.40
2023-02-11T19:05:14.381Z,56.40
2023-02-11T19:07:41.149Z,56.20
2023-02-11T19:10:08.481Z,56.20
2023-02-11T19:12:35.192Z,56.30
2023-02-11T19:15:01.964Z,56.20
2023-02-11T19:17:28.666Z,56.10
2023-02-11T19:19:55.363Z,56.30
2023-02-11T19:22:22.120Z,56.40
2023-02-11T19:24:49.046Z,56.30
2023-02-11T19:27:15.708Z,56.30
2023-02-11T19:29:42.525Z,56.30
2023-02-11T19:32:10.939Z,56.40
2023-02-11T19:34:41.510Z,56.40
2023-02-11T19:37:12.120Z,56.40
2023-02-11T19:39:40.262Z,56.40
2023-02-11T19:42:07.062Z,56.50
2023-02-11T19:44:33.772Z,56.50
2023-02-11T19:47:01.171Z,57.10
2023-02-11T19:49:28.335Z,56.40
2023-02-11T19:51:59.407Z,56.50
2023-02-11T19:54:28.999Z,56.40
2023-02-11T19:56:56.557Z,56.40
2023-02-11T19:59:23.527Z,56.60
2023-02-11T20:01:50.540Z,56.50
2023-02-11T20:04:17.379Z,56.50
2023-02-11T20:06:45.170Z,56.50
2023-02-11T20:09:14.116Z,57.10
2023-02-11T20:11:41.480Z,56.70
2023-02-11T20:14:11.394Z,56.60
2023-02-11T20:16:48.160Z,56.50
2023-02-11T20:19:21.458Z,56.70
2023-02-11T20:21:51.211Z,56.70
2023-02-11T20:24:19.070Z,56.90
2023-02-11T20:26:48.235Z,56.80
2023-02-11T20:29:17.340Z,56.90
2023-02-11T20:31:44.393Z,56.80
2023-02-11T20:34:12.224Z,57.00
2023-02-11T20:36:40.223Z,57.00
2023-02-11T20:39:07.807Z,56.90
2023-02-11T20:41:38.672Z,57.00
2023-02-11T20:44:07.474Z,57.00
2023-02-11T20:46:34.405Z,57.10
2023-02-11T20:51:31.569Z,57.10
2023-02-11T20:53:59.166Z,57.20
2023-02-11T20:56:28.958Z,57.10
2023-02-11T20:58:58.309Z,57.20
2023-02-11T21:01:28.211Z,57.20
2023-02-11T21:03:57.677Z,57.30
2023-02-11T21:06:27.112Z,57.50
2023-02-11T21:08:54.238Z,57.50
2023-02-11T21:11:20.986Z,57.40
2023-02-11T21:13:48.673Z,57.40
2023-02-11T21:16:22.669Z,57.40
2023-02-11T21:18:50.637Z,57.50
2023-02-11T21:21:18.583Z,57.50
2023-02-11T21:23:45.974Z,57.60
2023-02-11T21:26:16.942Z,57.70
2023-02-11T21:28:44.190Z,57.90
2023-02-11T21:31:22.524Z,57.80
2023-02-11T21:33:50.774Z,57.80
2023-02-11T21:36:17.869Z,57.80
2023-02-11T21:38:44.717Z,57.70
2023-02-11T21:41:12.038Z,57.80
2023-02-11T21:43:38.830Z,57.80
2023-02-11T21:46:10.797Z,57.80
2023-02-11T21:48:38.126Z,57.80
2023-02-11T21:51:07.149Z,57.90
2023-02-11T21:53:34.388Z,58.00
2023-02-11T21:56:12.881Z,57.80
2023-02-11T21:58:39.736Z,57.90
2023-02-11T22:01:19.803Z,57.90
2023-02-11T22:03:54.733Z,57.80
2023-02-11T22:06:30.924Z,57.60
2023-02-11T22:09:01.857Z,57.50
2023-02-11T22:11:28.588Z,57.60
2023-02-11T22:13:57.746Z,57.70
2023-02-11T22:16:26.143Z,57.80
2023-02-11T22:18:53.592Z,57.70
2023-02-11T22:21:22.744Z,57.70
2023-02-11T22:23:50.573Z,57.70
2023-02-11T22:26:20.197Z,57.60
2023-02-11T22:28:48.113Z,57.70
2023-02-11T22:31:21.750Z,57.80
2023-02-11T22:33:48.662Z,57.70
2023-02-11T22:36:24.067Z,57.60
2023-02-11T22:38:50.932Z,57.60
2023-02-11T22:41:18.769Z,57.70
2023-02-11T22:43:45.716Z,57.60
2023-02-11T22:46:14.984Z,57.50
2023-02-11T22:48:42.355Z,57.60
2023-02-11T22:51:15.797Z,57.60
2023-02-11T22:53:43.683Z,57.60
2023-02-11T22:56:15.353Z,57.60
2023-02-11T22:58:43.127Z,57.60
2023-02-11T23:01:10.069Z,57.70
2023-02-11T23:03:36.888Z,57.70
2023-02-11T23:06:04.468Z,57.60
2023-02-11T23:08:31.657Z,57.80
2023-02-11T23:11:10.735Z,57.90
2023-02-11T23:13:39.742Z,58.00
2023-02-11T23:16:15.034Z,57.90
2023-02-11T23:18:43.325Z,57.90
2023-02-11T23:21:19.333Z,57.90
2023-02-11T23:23:46.212Z,57.90
2023-02-11T23:26:15.256Z,58.00
2023-02-11T23:28:42.141Z,58.10
2023-02-11T23:31:25.645Z,58.00
2023-02-11T23:33:52.784Z,58.00
2023-02-11T23:36:20.993Z,58.00
2023-02-11T23:38:48.076Z,58.10
2023-02-11T23:41:15.819Z,58.10
2023-02-11T23:43:42.944Z,58.00
2023-02-11T23:46:10.483Z,58.10
2023-02-11T23:48:37.779Z,58.10
2023-02-11T23:51:06.448Z,57.90
2023-02-11T23:53:33.133Z,57.90
2023-02-11T23:55:59.819Z,57.90
2023-02-11T23:58:26.550Z,57.80
